createdAt,value
2022-11-10T00:01:11.148Z,100704.84
2022-11-10T00:03:42.490Z,100676.88
2022-11-10T00:06:11.853Z,100680.81
2022-11-10T00:08:40.038Z,100689.38
2022-11-10T00:11:09.208Z,100661.19
2022-11-10T00:13:59.851Z,100685.19
2022-11-10T00:16:46.696Z,100682.28
2022-11-10T00:19:14.838Z,100707.31
2022-11-10T00:21:42.900Z,100684.13
2022-11-10T00:24:10.910Z,100711.88
2022-11-10T00:26:38.789Z,100728.59
2022-11-10T00:29:06.667Z,100695.44
2022-11-10T00:31:37.993Z,100722.13
2022-11-10T00:34:06.371Z,100742.16
2022-11-10T00:36:35.655Z,100744.69
2022-11-10T00:39:03.775Z,100744.88
2022-11-10T00:41:35.918Z,100743.63
2022-11-10T00:44:03.834Z,100730.28
2022-11-10T00:46:31.752Z,100751.19
2022-11-10T00:49:00.994Z,100736.13
2022-11-10T00:51:30.501Z,100761.22
2022-11-10T00:53:58.505Z,100741.81
2022-11-10T00:56:26.827Z,100776.03
2022-11-10T00:58:54.728Z,100778.13
2022-11-10T01:01:25.523Z,100779.56
2022-11-10T01:03:54.331Z,100786.50
2022-11-10T01:06:23.733Z,100796.06
2022-11-10T01:08:51.837Z,100774.16
2022-11-10T01:11:22.118Z,100787.94
2022-11-10T01:13:53.903Z,100806.34
2022-11-10T01:16:23.812Z,100793.19
2022-11-10T01:18:53.101Z,100809.66
2022-11-10T01:21:23.305Z,100817.00
2022-11-10T01:24:22.859Z,100799.00
2022-11-10T01:26:54.321Z,100819.72
2022-11-10T01:29:22.868Z,100808.59
2022-11-10T01:31:50.706Z,100790.47
2022-11-10T01:34:18.707Z,100807.78
2022-11-10T01:36:48.003Z,100795.03
2022-11-10T01:39:15.828Z,100799.44
2022-11-10T01:41:43.938Z,100831.81
2022-11-10T01:44:14.633Z,100776.47
2022-11-10T01:46:42.489Z,100809.88
2022-11-10T01:49:11.411Z,100829.09
2022-11-10T01:51:43.210Z,100820.34
2022-11-10T01:54:16.574Z,100840.78
2022-11-10T01:56:49.130Z,100841.84
2022-11-10T01:59:21.234Z,100803.59
2022-11-10T02:01:51.984Z,100840.16
2022-11-10T02:04:22.492Z,100848.28
2022-11-10T02:06:51.798Z,100824.91
2022-11-10T02:09:21.406Z,100849.53
2022-11-10T02:11:55.055Z,100852.47
2022-11-10T02:14:23.222Z,100817.34
2022-11-10T02:16:51.263Z,100824.03
2022-11-10T02:19:22.679Z,100839.69
2022-11-10T02:21:51.910Z,100863.09
2022-11-10T02:24:20.180Z,100842.22
2022-11-10T02:26:51.729Z,100847.41
2022-11-10T02:29:19.873Z,100859.75
2022-11-10T02:31:47.764Z,100853.28
2022-11-10T02:34:15.669Z,100864.78
2022-11-10T02:36:43.527Z,100859.28
2022-11-10T02:39:12.872Z,100859.09
2022-11-10T02:41:41.072Z,100858.50
2022-11-10T02:44:09.393Z,100846.56
2022-11-10T02:46:37.493Z,100859.53
2022-11-10T02:49:05.641Z,100849.28
2022-11-10T02:51:33.458Z,100863.69
2022-11-10T02:54:01.744Z,100861.41
2022-11-10T02:56:30.918Z,100858.06
2022-11-10T02:58:59.461Z,100854.50
2022-11-10T03:01:27.390Z,100846.09
2022-11-10T03:03:55.981Z,100870.13
2022-11-10T03:06:25.598Z,100829.16
2022-11-10T03:09:27.150Z,100877.88
2022-11-10T03:12:00.574Z,100883.53
2022-11-10T03:14:31.053Z,100889.97
2022-11-10T03:17:03.680Z,100851.03
2022-11-10T03:19:33.019Z,100858.38
2022-11-10T03:22:02.891Z,100893.75
2022-11-10T03:24:32.481Z,100901.66
2022-11-10T03:27:06.037Z,100892.28
2022-11-10T03:29:35.811Z,100842.91
2022-11-10T03:32:08.274Z,100909.19
2022-11-10T03:34:37.748Z,100907.28
2022-11-10T03:37:05.724Z,100864.81
2022-11-10T03:39:33.885Z,100918.88
2022-11-10T03:42:01.832Z,100928.13
2022-11-10T03:44:32.256Z,100933.31
2022-11-10T03:47:03.346Z,100931.41
2022-11-10T03:49:35.941Z,100938.13
2022-11-10T03:52:06.024Z,100945.44
2022-11-10T03:54:33.921Z,100935.16
2022-11-10T03:57:01.816Z,100942.25
2022-11-10T03:59:31.294Z,100949.81
2022-11-10T04:01:59.286Z,100951.53
2022-11-10T04:04:44.747Z,100950.41
2022-11-10T04:07:31.466Z,100945.75
2022-11-10T04:09:59.405Z,100970.63
2022-11-10T04:12:44.581Z,100974.41
2022-11-10T04:15:32.133Z,100968.53
2022-11-10T04:48:05.592Z,100994.97
2022-11-10T04:50:35.537Z,100995.81
2022-11-10T04:53:03.348Z,100971.13
2022-11-10T04:55:31.164Z,101003.56
2022-11-10T04:57:59.083Z,101010.22
2022-11-10T05:00:27.220Z,101011.00
2022-11-10T05:02:55.137Z,100997.41
2022-11-10T05:05:22.968Z,101010.38
2022-11-10T05:07:52.062Z,101037.03
2022-11-10T05:10:20.352Z,101037.50
2022-11-10T05:12:48.103Z,101047.28
2022-11-10T05:15:15.954Z,101051.72
2022-11-10T05:17:43.714Z,101046.50
2022-11-10T05:20:11.581Z,101010.50
2022-11-10T05:22:39.330Z,101064.63
2022-11-10T05:25:09.426Z,101056.97
2022-11-10T05:27:37.244Z,101022.47
2022-11-10T05:30:05.849Z,101065.69
2022-11-10T05:32:33.732Z,101065.22
2022-11-10T05:35:01.550Z,101063.94
2022-11-10T05:37:29.345Z,101068.59
2022-11-10T05:39:57.180Z,101089.03
2022-11-10T05:42:27.523Z,101078.47
2022-11-10T05:44:55.376Z,101098.22
2022-11-10T05:47:23.320Z,101112.09
2022-11-10T05:49:51.162Z,101072.28
2022-11-10T05:52:19.083Z,101107.25
2022-11-10T05:54:47.004Z,101118.59
2022-11-10T05:57:14.825Z,101129.78
2022-11-10T05:59:44.143Z,101114.41
2022-11-10T06:02:12.197Z,101123.44
2022-11-10T06:04:40.036Z,101119.44
2022-11-10T06:07:09.019Z,101129.06
2022-11-10T06:09:37.956Z,101143.63
2022-11-10T06:12:06.166Z,101150.06
2022-11-10T06:14:33.958Z,101150.59
2022-11-10T06:17:03.278Z,101155.13
2022-11-10T06:19:31.194Z,101168.06
2022-11-10T06:22:03.598Z,101176.44
2022-11-10T06:24:34.358Z,101167.44
2022-11-10T06:27:02.324Z,101180.88
2022-11-10T06:29:30.232Z,101183.00
2022-11-10T06:31:58.904Z,101196.25
2022-11-10T06:34:29.029Z,101199.75
2022-11-10T06:36:57.029Z,101198.72
2022-11-10T06:39:24.917Z,101208.06
2022-11-10T06:41:52.821Z,101219.56
2022-11-10T06:44:40.490Z,101216.94
2022-11-10T06:47:10.332Z,101188.56
2022-11-10T06:49:39.498Z,101224.50
2022-11-10T06:52:07.373Z,101233.84
2022-11-10T06:54:35.271Z,101236.56
2022-11-10T06:57:03.070Z,101227.00
2022-11-10T06:59:30.887Z,101201.88
2022-11-10T07:01:58.785Z,101246.50
2022-11-10T07:04:26.575Z,101233.00
2022-11-10T07:06:55.969Z,101229.38
2022-11-10T07:09:23.805Z,101252.59
2022-11-10T07:11:51.679Z,101234.59
2022-11-10T07:14:19.682Z,101263.44
2022-11-10T07:16:55.998Z,101262.59
2022-11-10T07:19:23.815Z,101283.41
2022-11-10T07:21:51.855Z,101297.16
2022-11-10T07:24:21.050Z,101302.31
2022-11-10T07:26:49.014Z,101298.53
2022-11-10T07:29:16.982Z,101274.72
2022-11-10T07:31:44.819Z,101317.09
2022-11-10T07:34:12.753Z,101316.03
2022-11-10T07:36:54.500Z,101328.50
2022-11-10T07:39:24.125Z,101333.56
2022-11-10T07:41:52.782Z,101328.19
2022-11-10T07:44:22.430Z,101327.38
2022-11-10T07:46:50.398Z,101317.28
2022-11-10T07:49:18.267Z,101333.63
2022-11-10T07:51:46.128Z,101324.00
2022-11-10T07:54:14.060Z,101341.28
2022-11-10T07:56:43.807Z,101339.41
2022-11-10T07:59:11.645Z,101351.22
2022-11-10T08:01:39.543Z,101350.28
2022-11-10T08:04:07.420Z,101356.69
2022-11-10T08:06:36.731Z,101349.47
2022-11-10T08:09:05.065Z,101334.94
2022-11-10T08:11:32.906Z,101353.50
2022-11-10T08:14:02.112Z,101365.75
2022-11-10T08:16:29.983Z,101344.06
2022-11-10T08:18:57.952Z,101362.75
2022-11-10T08:21:26.043Z,101345.28
2022-11-10T08:23:54.139Z,101362.88
2022-11-10T08:26:22.191Z,101355.88
2022-11-10T08:28:50.075Z,101364.44
2022-11-10T08:31:19.253Z,101354.28
2022-11-10T08:33:47.321Z,101361.03
2022-11-10T08:36:15.296Z,101362.53
2022-11-10T08:38:43.322Z,101363.94
2022-11-10T08:41:11.151Z,101368.09
2022-11-10T08:43:39.174Z,101348.31
2022-11-10T08:46:09.631Z,101367.41
2022-11-10T08:48:39.169Z,101363.97
2022-11-10T08:51:07.103Z,101363.09
2022-11-10T08:53:34.987Z,101358.38
2022-11-10T08:56:02.994Z,101375.91
2022-11-10T08:58:30.967Z,101380.28
2022-11-10T09:00:58.833Z,101395.03
2022-11-10T09:03:27.252Z,101396.31
2022-11-10T09:05:58.985Z,101406.50
2022-11-10T09:08:27.661Z,101415.84
2022-11-10T09:10:55.753Z,101411.22
2022-11-10T09:13:28.995Z,101414.13
2022-11-10T09:15:57.886Z,101397.47
2022-11-10T09:18:25.761Z,101408.53
2022-11-10T09:20:53.547Z,101411.28
2022-11-10T09:23:24.828Z,101413.31
2022-11-10T09:25:54.708Z,101429.63
2022-11-10T09:28:23.908Z,101415.34
2022-11-10T09:30:54.129Z,101432.75
2022-11-10T09:33:22.562Z,101436.81
2022-11-10T09:35:50.943Z,101436.19
2022-11-10T09:38:18.851Z,101445.94
2022-11-10T09:41:00.884Z,101439.31
2022-11-10T09:43:34.403Z,101444.59
2022-11-10T09:46:10.119Z,101445.59
2022-11-10T09:48:42.991Z,101461.28
2022-11-10T09:51:16.588Z,101467.31
2022-11-10T09:53:51.504Z,101463.09
2022-11-10T09:56:27.183Z,101463.50
2022-11-10T09:58:55.311Z,101470.69
2022-11-10T10:01:31.646Z,101471.13
2022-11-10T10:04:08.992Z,101484.25
2022-11-10T10:07:09.713Z,101475.81
2022-11-10T10:09:42.315Z,101476.41
2022-11-10T10:12:24.665Z,101486.44
2022-11-10T10:15:10.782Z,101476.81
2022-11-10T10:17:46.749Z,101487.69
2022-11-10T10:20:24.689Z,101478.91
2022-11-10T10:23:05.145Z,101497.78
2022-11-10T10:25:36.113Z,101491.28
2022-11-10T10:28:14.255Z,101487.47
2022-11-10T10:30:46.326Z,101497.78
2022-11-10T10:33:17.914Z,101504.72
2022-11-10T10:35:47.869Z,101506.81
2022-11-10T10:38:23.488Z,101505.75
2022-11-10T10:40:53.213Z,101507.44
2022-11-10T10:43:22.480Z,101492.97
2022-11-10T10:46:06.584Z,101486.88
2022-11-10T10:48:34.959Z,101471.06
2022-11-10T10:51:02.843Z,101488.94
2022-11-10T10:53:30.827Z,101495.25
2022-11-10T10:56:02.374Z,101483.47
2022-11-10T10:58:34.202Z,101481.19
2022-11-10T11:01:06.948Z,101495.44
2022-11-10T11:03:43.399Z,101486.44
2022-11-10T11:06:21.157Z,101485.97
2022-11-10T11:08:59.667Z,101482.03
2022-11-10T11:11:31.402Z,101488.13
2022-11-10T11:14:22.904Z,101488.38
2022-11-10T11:16:53.010Z,101492.66
2022-11-10T11:19:23.229Z,101494.25
2022-11-10T11:22:04.977Z,101501.13
2022-11-10T11:24:40.618Z,101494.16
2022-11-10T11:27:15.536Z,101510.16
2022-11-10T11:29:56.666Z,101509.47
2022-11-10T11:32:49.410Z,101511.41
2022-11-10T11:35:25.545Z,101508.91
2022-11-10T11:38:06.750Z,101509.56
2022-11-10T11:40:49.470Z,101509.09
2022-11-10T11:43:40.602Z,101510.38
2022-11-10T11:46:17.782Z,101511.00
2022-11-10T11:49:02.500Z,101514.56
2022-11-10T11:51:39.912Z,101508.28
2022-11-10T11:54:29.389Z,101506.75
2022-11-10T11:57:09.879Z,101503.31
2022-11-10T11:59:58.152Z,101503.25
2022-11-10T12:02:53.011Z,101508.03
2022-11-10T12:05:36.596Z,101493.53
2022-11-10T12:08:15.921Z,101493.78
2022-11-10T12:10:55.899Z,101504.31
2022-11-10T12:13:37.708Z,101502.00
2022-11-10T12:16:12.975Z,101493.22
2022-11-10T12:18:49.839Z,101506.25
2022-11-10T12:21:26.697Z,101501.41
2022-11-10T12:24:12.702Z,101496.03
2022-11-10T12:26:48.389Z,101498.78
2022-11-10T12:29:24.994Z,101503.94
2022-11-10T12:31:56.942Z,101511.22
2022-11-10T12:34:37.589Z,101510.59
2022-11-10T12:37:09.092Z,101497.22
2022-11-10T12:39:50.429Z,101523.06
2022-11-10T12:42:22.920Z,101506.91
2022-11-10T12:45:00.519Z,101518.63
2022-11-10T12:47:32.866Z,101509.91
2022-11-10T12:50:27.719Z,101505.63
2022-11-10T12:52:59.201Z,101520.72
2022-11-10T12:55:35.597Z,101517.31
2022-11-10T12:58:05.400Z,101510.34
2022-11-10T13:00:40.030Z,101511.50
2022-11-10T13:03:15.959Z,101503.41
2022-11-10T13:05:46.222Z,101517.69
2022-11-10T13:08:27.816Z,101508.25
2022-11-10T13:10:58.469Z,101516.00
2022-11-10T13:13:26.506Z,101521.28
2022-11-10T13:15:57.075Z,101525.41
2022-11-10T13:18:42.192Z,101534.22
2022-11-10T13:21:11.426Z,101521.91
2022-11-10T13:24:14.583Z,101539.31
2022-11-10T13:26:52.568Z,101531.94
2022-11-10T13:29:29.462Z,101524.50
2022-11-10T13:31:58.961Z,101527.09
2022-11-10T13:34:29.816Z,101524.16
2022-11-10T13:37:00.252Z,101530.13
2022-11-10T13:39:31.893Z,101508.91
2022-11-10T13:42:17.720Z,101528.38
2022-11-10T13:44:47.642Z,101527.03
2022-11-10T13:47:53.909Z,101523.66
2022-11-10T13:50:33.638Z,101524.38
2022-11-10T13:53:17.016Z,101529.88
2022-11-10T13:56:01.679Z,101533.06
2022-11-10T13:58:32.537Z,101541.75
2022-11-10T14:01:28.990Z,101535.19
2022-11-10T14:04:00.389Z,101542.09
2022-11-10T14:06:40.229Z,101547.34
2022-11-10T14:09:19.242Z,101535.66
2022-11-10T14:11:52.109Z,101541.25
2022-11-10T14:14:24.559Z,101555.53
2022-11-10T14:16:54.129Z,101551.50
2022-11-10T14:19:32.420Z,101550.56
2022-11-10T14:22:05.364Z,101548.31
2022-11-10T14:24:39.384Z,101550.75
2022-11-10T14:27:14.115Z,101554.94
2022-11-10T14:29:43.008Z,101555.09
2022-11-10T14:32:18.855Z,101547.56
2022-11-10T14:34:49.598Z,101561.47
2022-11-10T14:37:24.215Z,101560.63
2022-11-10T14:39:56.549Z,101578.00
2022-11-10T14:42:26.935Z,101553.94
2022-11-10T14:45:17.333Z,101573.91
2022-11-10T14:47:53.079Z,101574.47
2022-11-10T14:50:24.781Z,101549.13
2022-11-10T14:52:56.433Z,101572.19
2022-11-10T14:55:29.576Z,101576.22
2022-11-10T14:58:04.039Z,101588.66
2022-11-10T15:00:37.349Z,101588.34
2022-11-10T15:03:07.507Z,101593.03
2022-11-10T15:05:35.979Z,101592.59
2022-11-10T15:08:05.386Z,101604.00
2022-11-10T15:10:48.434Z,101598.88
2022-11-10T15:13:21.223Z,101599.84
2022-11-10T15:15:49.162Z,101594.69
2022-11-10T15:18:26.928Z,101585.25
2022-11-10T15:21:02.321Z,101582.56
2022-11-10T15:23:33.986Z,101574.13
2022-11-10T15:26:03.533Z,101598.72
2022-11-10T15:28:33.765Z,101599.59
2022-11-10T15:31:03.606Z,101602.78
2022-11-10T15:33:34.975Z,101601.09
2022-11-10T15:36:18.007Z,101602.38
2022-11-10T15:39:01.585Z,101595.41
2022-11-10T15:41:33.826Z,101603.00
2022-11-10T15:44:29.989Z,101611.19
2022-11-10T15:47:00.134Z,101608.03
2022-11-10T15:49:31.988Z,101605.28
2022-11-10T15:52:04.045Z,101593.47
2022-11-10T15:54:38.636Z,101617.00
2022-11-10T15:57:12.671Z,101613.88
2022-11-10T15:59:40.680Z,101613.22
2022-11-10T16:02:21.200Z,101636.28
2022-11-10T16:04:53.406Z,101631.66
2022-11-10T16:07:26.042Z,101627.88
2022-11-10T16:09:54.333Z,101646.09
2022-11-10T16:12:24.377Z,101644.00
2022-11-10T16:14:54.548Z,101631.59
2022-11-10T16:17:23.555Z,101638.31
2022-11-10T16:19:51.450Z,101639.13
2022-11-10T16:22:20.785Z,101637.63
2022-11-10T16:24:57.915Z,101643.72
2022-11-10T16:27:33.023Z,101634.31
2022-11-10T16:30:01.497Z,101629.81
2022-11-10T16:32:29.444Z,101635.72
2022-11-10T16:34:57.346Z,101646.63
2022-11-10T16:37:25.280Z,101632.28
2022-11-10T16:39:53.142Z,101645.34
2022-11-10T16:42:20.983Z,101635.06
2022-11-10T16:44:50.262Z,101638.84
2022-11-10T16:47:20.240Z,101641.75
2022-11-10T16:49:49.203Z,101652.81
2022-11-10T16:52:17.850Z,101642.97
2022-11-10T16:54:45.986Z,101655.72
2022-11-10T16:57:15.379Z,101651.28
2022-11-10T16:59:45.612Z,101662.03
2022-11-10T17:02:31.502Z,101663.69
2022-11-10T17:04:59.593Z,101685.06
2022-11-10T17:07:29.325Z,101667.78
2022-11-10T17:09:57.853Z,101694.06
2022-11-10T17:12:25.829Z,101694.75
2022-11-10T17:14:53.760Z,101693.69
2022-11-10T17:17:21.936Z,101694.75
2022-11-10T17:19:52.266Z,101700.09
2022-11-10T17:22:22.804Z,101692.19
2022-11-10T17:24:57.345Z,101703.56
2022-11-10T17:27:26.267Z,101699.44
2022-11-10T17:29:54.257Z,101694.56
2022-11-10T17:32:43.138Z,101710.56
2022-11-10T17:35:11.930Z,101722.78
2022-11-10T17:37:40.957Z,101718.38
2022-11-10T17:40:19.232Z,101725.84
2022-11-10T17:42:47.722Z,101725.28
2022-11-10T17:45:23.456Z,101730.97
2022-11-10T17:47:51.889Z,101728.91
2022-11-10T17:50:23.632Z,101726.28
2022-11-10T17:52:51.626Z,101729.63
2022-11-10T17:55:27.339Z,101729.19
2022-11-10T17:57:58.113Z,101724.72
2022-11-10T18:00:28.339Z,101737.38
2022-11-10T18:02:56.694Z,101740.47
2022-11-10T18:05:33.611Z,101724.66
2022-11-10T18:08:02.068Z,101730.50
2022-11-10T18:10:30.123Z,101732.97
2022-11-10T18:12:58.970Z,101727.47
2022-11-10T18:15:26.877Z,101708.34
2022-11-10T18:18:00.908Z,101716.31
2022-11-10T18:20:30.846Z,101695.38
2022-11-10T18:22:58.796Z,101728.50
2022-11-10T18:25:26.788Z,101730.50
2022-11-10T18:27:54.798Z,101716.97
2022-11-10T18:30:23.020Z,101736.50
2022-11-10T18:32:51.152Z,101736.16
2022-11-10T18:35:20.661Z,101718.47
2022-11-10T18:37:49.990Z,101749.56
2022-11-10T18:40:17.941Z,101764.03
2022-11-10T18:42:45.921Z,101764.88
2022-11-10T18:45:14.175Z,101762.06
2022-11-10T18:47:42.222Z,101764.25
2022-11-10T18:50:11.113Z,101755.44
2022-11-10T18:52:38.955Z,101763.41
2022-11-10T18:55:10.230Z,101785.75
2022-11-10T18:57:38.328Z,101783.94
2022-11-10T19:00:07.874Z,101776.44
2022-11-10T19:02:36.574Z,101767.69
2022-11-10T19:05:05.189Z,101763.94
2022-11-10T19:07:33.130Z,101784.50
2022-11-10T19:10:01.139Z,101776.63
2022-11-10T19:12:32.000Z,101787.50
2022-11-10T19:15:00.688Z,101801.91
2022-11-10T19:17:28.722Z,101797.78
2022-11-10T19:19:57.064Z,101808.66
2022-11-10T19:22:25.154Z,101808.66
2022-11-10T19:25:07.747Z,101812.31
2022-11-10T19:27:37.866Z,101816.81
2022-11-10T19:30:06.665Z,101809.00
2022-11-10T19:32:34.735Z,101810.44
2022-11-10T19:35:03.805Z,101771.97
2022-11-10T19:37:35.006Z,101808.81
2022-11-10T19:40:04.039Z,101784.78
2022-11-10T19:42:33.027Z,101803.56
2022-11-10T19:45:03.556Z,101795.16
2022-11-10T19:47:32.214Z,101794.88
2022-11-10T19:50:00.240Z,101799.31
2022-11-10T19:52:28.286Z,101786.91
2022-11-10T19:54:56.157Z,101806.94
2022-11-10T19:57:24.360Z,101816.78
2022-11-10T19:59:52.183Z,101820.69
2022-11-10T20:02:21.687Z,101826.47
2022-11-10T20:05:07.632Z,101814.59
2022-11-10T20:07:53.084Z,101829.63
2022-11-10T20:10:20.970Z,101835.47
2022-11-10T20:12:49.162Z,101821.88
2022-11-10T20:15:17.616Z,101838.66
2022-11-10T20:17:46.917Z,101817.94
2022-11-10T20:20:15.285Z,101844.78
2022-11-10T20:22:43.376Z,101839.50
2022-11-10T20:25:11.837Z,101840.44
2022-11-10T20:27:39.933Z,101828.66
2022-11-10T20:30:09.248Z,101824.03
2022-11-10T20:32:37.791Z,101823.75
2022-11-10T20:35:08.315Z,101822.16
2022-11-10T20:37:36.307Z,101826.31
2022-11-10T20:40:10.412Z,101822.00
2022-11-10T20:42:52.323Z,101834.56
2022-11-10T20:45:20.290Z,101823.88
2022-11-10T20:47:48.163Z,101831.59
2022-11-10T20:50:23.055Z,101823.81
2022-11-10T20:52:52.373Z,101840.66
2022-11-10T20:55:43.801Z,101835.97
2022-11-10T20:58:08.461Z,101844.91
2022-11-10T21:00:36.480Z,101833.91
2022-11-10T21:03:04.545Z,101844.81
2022-11-10T21:05:33.930Z,101849.00
2022-11-10T21:08:01.932Z,101844.94
2022-11-10T21:10:30.038Z,101848.34
2022-11-10T21:12:58.238Z,101853.81
2022-11-10T21:15:26.421Z,101864.31
2022-11-10T21:17:54.383Z,101855.53
2022-11-10T21:20:22.358Z,101859.09
2022-11-10T21:22:51.656Z,101845.94
2022-11-10T21:25:20.662Z,101839.81
2022-11-10T21:27:48.881Z,101862.34
2022-11-10T21:30:22.989Z,101858.97
2022-11-10T21:32:50.932Z,101862.84
2022-11-10T21:35:20.163Z,101858.28
2022-11-10T21:37:48.074Z,101860.88
2022-11-10T21:40:17.662Z,101852.53
2022-11-10T21:42:45.662Z,101862.03
2022-11-10T21:45:13.689Z,101855.44
2022-11-10T21:47:41.592Z,101848.50
2022-11-10T21:50:09.668Z,101856.97
2022-11-10T21:52:37.798Z,101845.84
2022-11-10T21:55:06.823Z,101861.06
2022-11-10T21:57:36.437Z,101857.47
2022-11-10T22:00:05.301Z,101861.44
2022-11-10T22:02:33.118Z,101853.78
2022-11-10T22:05:00.940Z,101853.59
2022-11-10T22:07:29.003Z,101848.50
2022-11-10T22:10:14.715Z,101859.72
2022-11-10T22:13:01.701Z,101855.59
2022-11-10T22:15:46.842Z,101862.78
2022-11-10T22:18:34.488Z,101861.06
2022-11-10T22:21:02.950Z,101849.75
2022-11-10T22:23:48.124Z,101856.00
2022-11-10T22:26:16.439Z,101858.94
2022-11-10T22:28:46.553Z,101867.56
2022-11-10T22:31:14.532Z,101869.75
2022-11-10T22:33:43.966Z,101860.78
2022-11-10T22:36:14.837Z,101870.09
2022-11-10T22:38:43.308Z,101863.31
2022-11-10T22:41:32.269Z,101865.19
2022-11-10T22:44:08.468Z,101858.59
2022-11-10T22:46:38.564Z,101866.56
2022-11-10T22:49:08.660Z,101873.66
2022-11-10T22:51:37.807Z,101839.31
2022-11-10T22:54:06.895Z,101869.09
2022-11-10T22:56:36.087Z,101875.53
2022-11-10T22:59:05.898Z,101879.09
2022-11-10T23:01:34.317Z,101869.94
2022-11-10T23:04:02.928Z,101878.59
2022-11-10T23:06:31.476Z,101882.31
2022-11-10T23:09:00.481Z,101880.44
2022-11-10T23:11:30.826Z,101888.91
2022-11-10T23:13:59.981Z,101879.75
2022-11-10T23:16:33.283Z,101882.47
2022-11-10T23:19:02.347Z,101879.44
2022-11-10T23:21:32.221Z,101880.91
2022-11-10T23:24:02.699Z,101876.50
2022-11-10T23:26:31.064Z,101871.22
2022-11-10T23:28:58.937Z,101876.63
2022-11-10T23:31:30.754Z,101863.78
2022-11-10T23:33:58.751Z,101865.13
2022-11-10T23:36:27.805Z,101872.94
2022-11-10T23:38:56.434Z,101880.31
2022-11-10T23:41:26.110Z,101876.34
2022-11-10T23:43:54.444Z,101885.53
2022-11-10T23:46:22.714Z,101886.88
2022-11-10T23:48:52.441Z,101901.69
2022-11-10T23:51:25.563Z,101895.25
2022-11-10T23:53:55.062Z,101890.78
